Boca Raton, FL

10:43 PM EDT on May 04, 2015 (GMT -0400)
Spanish Village | | Change Station
CLOSE
Current Station
Personal Weather Station
Location: Boca Raton, FL
Elevation: 13 ft
Nearby Weather Stations

Elev 13 ft 26.36 °N, 80.09 °W | Updated 4 hours ago

Overcast
Overcast
76.7 °F
Feels Like 78 °F
N
12.0
Wind Variable Wind from NE
Gusts 17.0 mph

Today
High -- | Low -- °F
--% Chance of Precip.
Yesterday
High -- | Low -- °F
Precip. -- in
6:40 AM 7:53 PM
Full, 99% visible
Pressure 30.13 in
Visibility 6.0 miles
Clouds Scattered Clouds 2700 ft
Overcast 4900 ft
Heat Index 78 °F
Dew Point 66.2 °F
Humidity 70%
Rainfall 0.00 in
Snow Depth Not available.
UV 0 out of 12
Pollen 5.80 out of 12
Air Quality Not available.
Flu Activity Local Activity
SPECI KPMP 050218Z AUTO 06012KT 6SM -RA SCT027 OVC049 23/19 A3013 RMK AO2 RAB0157 P0001 T02330189

More Conditions Fewer Conditions

Pressure 30.13 in
Visibility 6.0 miles
Clouds Scattered Clouds 2700 ft
Overcast 4900 ft
Heat Index 78 °F
Dew Point 66.2 °F
Humidity 70%
Rainfall 0.00 in
Snow Depth Not available.
UV 0 out of 12
Pollen 5.80 out of 12
Air Quality Not available.
Flu Activity Local Activity
SPECI KPMP 050218Z AUTO 06012KT 6SM -RA SCT027 OVC049 23/19 A3013 RMK AO2 RAB0157 P0001 T02330189

More Conditions Fewer Conditions

Nepal has a long way to go to dig out and rebuild from a devastating earthquake. We have teamed up with several charities and organizations to make contributing to the relief effort as easy as possible.
How you can help: Portlight Strategies | Red Cross
Nowcast | as of 9:20 PM EDT on May 4, 2015

An area of showers off the southern Palm Beach and norther browardcoast will move inland...affecting Delray Beach...Boca Raton...and Pompano Beach. Brief moderate rain and gusty winds of around 25 knots will accompany the showers as they pass by.

×

10-Day Weather Forecast

Almanac

Astronomy

May. 04, 2015 Rise Set
Actual Time
Civil Twilight
Nautical Twilight
Astronomical Twilight
Moon
Length of Visible Light
Length of Day
Tomorrow will be .
, % of the Moon is Illuminated

Today's Extremes

State Highs State Lows

Community

WunderPhotos

Upload Photos

1,818,793 photos uploaded!

WunderBlogs® & News

Nearby

Air Quality

  Air Quality AQ Index Pollutant
Not available.

Snow Depth

Station Depth Elevation

Earthquake Activity

City Distance Mag. Time & Date
Minimum magnitude displayed is 2.5.

Coastal Water Temperatures

Place Temperature

Stations

Nearby Weather Stations

Station Location Temp. Windchill Dew Point Humidity Wind Precip. Elev Updated Type